createdAt,value
2019-05-09T00:00:58.587Z,7.78
2019-05-09T00:02:03.399Z,8.03
2019-05-09T00:03:07.113Z,8.07
2019-05-09T00:04:13.751Z,7.91
2019-05-09T00:05:15.937Z,7.98
2019-05-09T00:06:20.246Z,8.03
2019-05-09T00:07:24.586Z,7.72
2019-05-09T00:08:28.899Z,8.05
2019-05-09T00:09:33.632Z,8.15
2019-05-09T00:10:41.572Z,8.10
2019-05-09T00:11:43.853Z,8.01
2019-05-09T00:12:46.225Z,7.98
2019-05-09T00:13:50.593Z,8.11
2019-05-09T00:14:54.892Z,8.11
2019-05-09T00:15:59.336Z,8.12
2019-05-09T00:17:03.903Z,8.18
2019-05-09T00:18:07.980Z,8.04
2019-05-09T00:19:13.571Z,8.20
2019-05-09T00:20:16.646Z,8.26
2019-05-09T00:21:20.958Z,8.22
2019-05-09T00:22:25.346Z,7.91
2019-05-09T00:23:29.671Z,8.41
2019-05-09T00:24:34.040Z,8.35
2019-05-09T00:25:38.265Z,8.43
2019-05-09T00:26:44.226Z,8.25
2019-05-09T00:27:46.980Z,8.11
2019-05-09T00:28:53.245Z,8.49
2019-05-09T00:29:55.641Z,8.50
2019-05-09T00:30:59.907Z,8.61
2019-05-09T00:32:04.273Z,8.48
2019-05-09T00:33:08.590Z,8.63
2019-05-09T00:34:14.363Z,8.67
2019-05-09T00:35:17.294Z,8.70
2019-05-09T00:36:23.187Z,8.65
2019-05-09T00:37:25.934Z,8.71
2019-05-09T00:38:30.259Z,8.74
2019-05-09T00:39:34.534Z,8.72
2019-05-09T00:40:53.055Z,8.58
2019-05-09T00:41:43.605Z,8.75
2019-05-09T00:42:47.391Z,8.77
2019-05-09T00:43:54.164Z,8.77
2019-05-09T00:44:56.085Z,8.81
2019-05-09T00:46:00.390Z,8.65
2019-05-09T00:47:04.760Z,8.53
2019-05-09T00:48:09.058Z,8.64
2019-05-09T00:49:14.058Z,8.41
2019-05-09T00:50:17.675Z,8.36
2019-05-09T00:51:23.274Z,8.64
2019-05-09T00:52:26.459Z,8.83
2019-05-09T00:53:30.730Z,8.38
2019-05-09T00:54:35.012Z,8.85
2019-05-09T00:55:39.343Z,8.53
2019-05-09T00:56:43.744Z,8.39
2019-05-09T00:57:48.030Z,8.27
2019-05-09T00:58:53.533Z,8.21
2019-05-09T00:59:56.656Z,8.58
2019-05-09T01:01:00.986Z,8.66
2019-05-09T01:02:05.247Z,8.37
2019-05-09T01:03:09.625Z,8.30
2019-05-09T01:04:13.965Z,8.50
2019-05-09T01:05:18.294Z,8.66
2019-05-09T01:06:24.049Z,9.03
2019-05-09T01:07:26.920Z,8.61
2019-05-09T01:08:33.352Z,8.65
2019-05-09T01:09:35.349Z,8.70
2019-05-09T01:10:39.748Z,8.42
2019-05-09T01:11:44.182Z,8.43
2019-05-09T01:12:48.337Z,8.60
2019-05-09T01:13:54.308Z,8.50
2019-05-09T01:14:57.088Z,8.37
2019-05-09T01:16:01.366Z,8.52
2019-05-09T01:17:05.677Z,8.35
2019-05-09T01:18:09.931Z,8.44
2019-05-09T01:19:14.319Z,8.35
2019-05-09T01:20:18.621Z,8.38
2019-05-09T01:21:24.064Z,8.13
2019-05-09T01:22:27.160Z,8.19
2019-05-09T01:23:31.473Z,8.32
2019-05-09T01:24:35.783Z,8.48
2019-05-09T01:25:40.103Z,8.46
2019-05-09T01:26:44.397Z,8.44
2019-05-09T01:27:48.702Z,8.78
2019-05-09T01:28:53.769Z,8.56
2019-05-09T01:29:57.341Z,9.07
2019-05-09T01:31:03.750Z,8.97
2019-05-09T01:32:05.993Z,8.85
2019-05-09T01:33:10.339Z,8.58
2019-05-09T01:34:14.664Z,8.44
2019-05-09T01:35:18.976Z,8.93
2019-05-09T01:36:23.571Z,8.68
2019-05-09T01:37:27.540Z,8.81
2019-05-09T01:38:33.930Z,8.79
2019-05-09T01:39:36.200Z,8.58
2019-05-09T01:40:40.540Z,8.58
2019-05-09T01:41:44.864Z,8.53
2019-05-09T01:42:49.205Z,8.75
2019-05-09T01:43:53.801Z,8.87
2019-05-09T01:44:57.925Z,8.73
2019-05-09T01:46:03.707Z,8.85
2019-05-09T01:47:06.542Z,8.88
2019-05-09T01:48:10.886Z,8.82
2019-05-09T01:49:18.229Z,8.93
2019-05-09T01:50:23.305Z,8.87
2019-05-09T01:51:25.804Z,9.00
2019-05-09T01:52:30.152Z,9.39
2019-05-09T01:53:34.466Z,9.17
2019-05-09T01:54:38.849Z,9.40
2019-05-09T01:55:43.278Z,9.31
2019-05-09T01:56:47.432Z,9.27
2019-05-09T01:57:53.862Z,9.52
2019-05-09T01:58:56.081Z,9.49
2019-05-09T02:00:00.376Z,9.34
2019-05-09T02:01:04.631Z,9.08
2019-05-09T02:02:09.191Z,9.07
2019-05-09T02:03:13.933Z,9.20
2019-05-09T02:04:17.468Z,9.21
2019-05-09T02:05:23.963Z,9.26
2019-05-09T02:06:26.133Z,9.47
2019-05-09T02:07:30.429Z,9.14
2019-05-09T02:08:34.806Z,8.97
2019-05-09T02:09:39.097Z,9.03
2019-05-09T02:10:44.254Z,9.01
2019-05-09T02:11:47.726Z,9.05
2019-05-09T02:12:53.795Z,9.28
2019-05-09T02:13:56.217Z,9.04
2019-05-09T02:15:00.610Z,9.00
2019-05-09T02:16:04.910Z,8.81
2019-05-09T02:17:09.233Z,9.00
2019-05-09T02:18:13.816Z,8.88
2019-05-09T02:19:17.871Z,8.84
2019-05-09T02:20:24.143Z,8.75
2019-05-09T02:21:26.468Z,8.94
2019-05-09T02:22:30.828Z,8.75
2019-05-09T02:23:35.029Z,8.86
2019-05-09T02:24:39.424Z,8.85
2019-05-09T02:25:43.885Z,8.85
2019-05-09T02:26:47.929Z,8.86
2019-05-09T02:27:52.305Z,8.84
2019-05-09T02:28:56.530Z,8.79
2019-05-09T02:30:00.861Z,8.97
2019-05-09T02:31:05.613Z,8.92
2019-05-09T02:32:09.408Z,8.88
2019-05-09T02:33:14.738Z,9.02
2019-05-09T02:34:18.101Z,8.87
2019-05-09T02:35:22.365Z,9.04
2019-05-09T02:36:29.578Z,8.98
2019-05-09T02:37:30.883Z,9.15
2019-05-09T02:38:35.211Z,9.02
2019-05-09T02:39:39.520Z,8.94
2019-05-09T02:40:43.874Z,8.88
2019-05-09T02:42:00.803Z,8.80
2019-05-09T02:42:52.414Z,9.02
2019-05-09T02:43:58.574Z,8.92
2019-05-09T02:45:01.054Z,9.07
2019-05-09T02:46:05.394Z,9.15
2019-05-09T02:47:09.680Z,9.17
2019-05-09T02:48:14.024Z,9.21
2019-05-09T02:49:19.142Z,9.01
2019-05-09T02:50:22.677Z,9.13
2019-05-09T02:51:29.195Z,9.09
2019-05-09T02:52:31.275Z,8.98
2019-05-09T02:53:35.407Z,9.07
2019-05-09T02:54:39.892Z,9.39
2019-05-09T02:55:44.089Z,9.28
2019-05-09T02:56:49.279Z,9.07
2019-05-09T02:57:52.769Z,8.98
2019-05-09T02:58:58.927Z,9.00
2019-05-09T03:00:01.513Z,8.97
2019-05-09T03:01:08.233Z,9.13
2019-05-09T03:02:10.027Z,9.08
2019-05-09T03:03:14.276Z,9.10
2019-05-09T03:04:19.015Z,8.98
2019-05-09T03:05:22.870Z,8.92
2019-05-09T03:06:28.390Z,8.92
2019-05-09T03:07:31.564Z,8.98
2019-05-09T03:08:38.334Z,9.08
2019-05-09T03:09:40.178Z,9.03
2019-05-09T03:10:44.509Z,9.12
2019-05-09T03:11:48.931Z,9.16
2019-05-09T03:12:53.161Z,9.00
2019-05-09T03:13:58.684Z,9.17
2019-05-09T03:15:01.783Z,9.01
2019-05-09T03:16:08.587Z,9.21
2019-05-09T03:17:10.373Z,9.15
2019-05-09T03:18:14.610Z,9.22
2019-05-09T03:19:19.598Z,9.09
2019-05-09T03:20:23.341Z,9.04
2019-05-09T03:21:30.657Z,9.13
2019-05-09T03:22:34.023Z,9.16
2019-05-09T03:23:39.045Z,9.13
2019-05-09T03:24:42.647Z,9.02
2019-05-09T03:25:48.438Z,8.98
2019-05-09T03:26:51.287Z,8.99
2019-05-09T03:27:58.535Z,9.10
2019-05-09T03:28:59.862Z,9.13
2019-05-09T03:30:04.172Z,9.07
2019-05-09T03:31:09.679Z,9.09
2019-05-09T03:32:12.809Z,9.14
2019-05-09T03:33:20.137Z,9.10
2019-05-09T03:34:21.302Z,9.12
2019-05-09T03:35:27.403Z,9.32
2019-05-09T03:36:29.916Z,9.41
2019-05-09T03:37:34.239Z,9.55
2019-05-09T03:38:38.489Z,9.55
2019-05-09T03:39:42.805Z,9.51
2019-05-09T03:40:47.657Z,9.25
2019-05-09T03:41:51.348Z,9.25
2019-05-09T03:42:57.456Z,9.26
2019-05-09T03:44:00.005Z,9.25
2019-05-09T03:45:04.338Z,9.44
2019-05-09T03:46:08.637Z,9.40
2019-05-09T03:47:12.935Z,9.50
2019-05-09T03:48:18.016Z,9.37
2019-05-09T03:49:21.400Z,9.25
2019-05-09T03:50:27.863Z,9.37
2019-05-09T03:51:30.159Z,9.48
2019-05-09T03:52:34.370Z,9.50
2019-05-09T03:53:38.738Z,9.51
2019-05-09T03:54:42.968Z,9.42
2019-05-09T03:55:47.539Z,9.34
2019-05-09T03:56:51.656Z,9.26
2019-05-09T03:57:57.936Z,9.21
2019-05-09T03:59:00.267Z,9.21
2019-05-09T04:00:04.595Z,9.41
2019-05-09T04:01:10.861Z,9.44
2019-05-09T04:02:13.263Z,9.36
2019-05-09T04:03:19.887Z,9.37
2019-05-09T04:04:21.852Z,9.36
2019-05-09T04:05:27.335Z,9.31
2019-05-09T04:06:30.493Z,9.43
2019-05-09T04:07:34.885Z,9.38
2019-05-09T04:08:39.191Z,9.36
2019-05-09T04:09:43.499Z,9.55
2019-05-09T04:10:50.293Z,9.36
2019-05-09T04:11:52.147Z,9.35
2019-05-09T04:12:59.403Z,9.40
2019-05-09T04:14:00.789Z,9.35
2019-05-09T04:15:05.034Z,9.35
2019-05-09T04:16:09.267Z,9.34
2019-05-09T04:17:13.759Z,9.28
2019-05-09T04:18:18.026Z,9.28
2019-05-09T04:19:22.333Z,9.29
2019-05-09T04:20:27.731Z,9.36
2019-05-09T04:21:31.106Z,9.37
2019-05-09T04:22:35.411Z,9.35
2019-05-09T04:23:39.791Z,9.30
2019-05-09T04:24:44.087Z,9.30
2019-05-09T04:25:48.412Z,9.34
2019-05-09T04:26:52.830Z,9.34
2019-05-09T04:27:58.311Z,9.23
2019-05-09T04:29:01.485Z,9.21
2019-05-09T04:30:08.814Z,9.22
2019-05-09T04:31:10.140Z,9.28
2019-05-09T04:32:14.481Z,9.35
2019-05-09T04:33:18.727Z,9.25
2019-05-09T04:34:23.073Z,9.32
2019-05-09T04:35:27.959Z,9.30
2019-05-09T04:36:31.739Z,9.32
2019-05-09T04:37:38.005Z,9.28
2019-05-09T04:38:40.398Z,9.27
2019-05-09T04:39:44.571Z,9.31
2019-05-09T04:40:48.977Z,9.33
2019-05-09T04:41:55.110Z,9.25
2019-05-09T04:43:10.924Z,9.44
2019-05-09T04:44:05.037Z,9.43
2019-05-09T04:45:10.009Z,9.35
2019-05-09T04:46:13.022Z,9.39
2019-05-09T04:47:14.898Z,9.30
2019-05-09T04:48:23.906Z,9.28
2019-05-09T04:49:23.460Z,9.30
2019-05-09T04:50:28.019Z,9.30
2019-05-09T04:51:32.130Z,9.35
2019-05-09T04:52:39.880Z,9.47
2019-05-09T04:53:40.847Z,9.35
2019-05-09T04:54:45.160Z,9.38
2019-05-09T04:55:49.490Z,9.28
2019-05-09T04:56:54.023Z,9.31
2019-05-09T04:58:00.214Z,9.27
2019-05-09T04:59:02.427Z,9.25
2019-05-09T05:00:07.561Z,9.29
2019-05-09T05:01:11.054Z,9.28
2019-05-09T05:02:15.483Z,9.24
2019-05-09T05:03:19.834Z,9.44
2019-05-09T05:04:24.072Z,9.45
2019-05-09T05:05:28.498Z,9.43
2019-05-09T05:06:32.741Z,9.45
2019-05-09T05:07:37.629Z,9.35
2019-05-09T05:08:41.473Z,9.28
2019-05-09T05:09:45.772Z,9.34
2019-05-09T05:10:50.096Z,9.33
2019-05-09T05:11:54.459Z,9.31
2019-05-09T05:12:58.739Z,9.28
2019-05-09T05:14:03.130Z,9.24
2019-05-09T05:15:10.415Z,9.30
2019-05-09T05:16:13.905Z,9.42
2019-05-09T05:17:18.332Z,9.48
2019-05-09T05:18:22.652Z,9.59
2019-05-09T05:19:28.504Z,9.46
2019-05-09T05:20:31.383Z,9.39
2019-05-09T05:21:37.749Z,9.52
2019-05-09T05:22:39.996Z,9.52
2019-05-09T05:23:44.378Z,9.53
2019-05-09T05:24:49.054Z,9.45
2019-05-09T05:25:53.164Z,9.43
2019-05-09T05:26:58.537Z,9.45
2019-05-09T05:28:08.723Z,9.58
2019-05-09T05:29:11.733Z,9.68
2019-05-09T05:30:18.014Z,9.55
2019-05-09T05:31:21.472Z,9.53
2019-05-09T05:32:28.061Z,9.53
2019-05-09T05:33:29.900Z,9.60
2019-05-09T05:34:34.242Z,9.55
2019-05-09T05:35:38.538Z,9.48
2019-05-09T05:36:42.803Z,9.47
2019-05-09T05:37:47.749Z,9.55
2019-05-09T05:38:51.526Z,9.53
2019-05-09T05:39:58.190Z,9.50
2019-05-09T05:41:00.244Z,9.50
2019-05-09T05:42:05.373Z,9.55
2019-05-09T05:43:09.389Z,9.57
2019-05-09T05:44:13.760Z,9.50
2019-05-09T05:45:18.309Z,9.49
2019-05-09T05:46:23.543Z,9.48
2019-05-09T05:47:29.321Z,9.63
2019-05-09T05:48:32.343Z,9.66
2019-05-09T05:49:38.451Z,9.63
2019-05-09T05:50:41.092Z,9.58
2019-05-09T05:51:45.478Z,9.57
2019-05-09T05:52:49.738Z,9.55
2019-05-09T05:53:54.009Z,9.48
2019-05-09T05:54:58.521Z,9.46
2019-05-09T05:56:02.841Z,9.49
2019-05-09T05:57:08.384Z,9.57
2019-05-09T05:58:11.434Z,9.51
2019-05-09T05:59:17.813Z,9.50
2019-05-09T06:00:20.267Z,9.53
2019-05-09T06:01:24.603Z,9.53
2019-05-09T06:02:28.915Z,9.60
2019-05-09T06:03:37.691Z,9.70
2019-05-09T06:04:39.455Z,9.67
2019-05-09T06:05:43.718Z,9.59
2019-05-09T06:06:48.323Z,9.65
2019-05-09T06:07:52.258Z,9.74
2019-05-09T06:08:57.964Z,9.63
2019-05-09T06:10:00.828Z,9.66
2019-05-09T06:11:09.510Z,9.60
2019-05-09T06:12:09.398Z,9.67
2019-05-09T06:13:13.647Z,9.66
2019-05-09T06:14:18.589Z,9.73
2019-05-09T06:15:22.338Z,9.71
2019-05-09T06:16:28.126Z,9.70
2019-05-09T06:17:30.816Z,9.72
2019-05-09T06:18:35.149Z,9.74
2019-05-09T06:19:39.366Z,9.87
2019-05-09T06:20:45.618Z,9.81
2019-05-09T06:21:49.244Z,9.73
2019-05-09T06:22:55.218Z,9.79
2019-05-09T06:23:58.659Z,9.77
2019-05-09T06:25:02.826Z,9.85
2019-05-09T06:26:09.868Z,9.75
2019-05-09T06:27:11.386Z,9.71
2019-05-09T06:28:18.030Z,9.78
2019-05-09T06:29:19.976Z,9.82
2019-05-09T06:30:24.304Z,9.77
2019-05-09T06:31:28.621Z,9.76
2019-05-09T06:32:32.820Z,9.73
2019-05-09T06:33:44.894Z,9.74
2019-05-09T06:34:42.257Z,9.74
2019-05-09T06:35:47.984Z,9.80
2019-05-09T06:36:49.917Z,9.73
2019-05-09T06:37:54.277Z,9.73
2019-05-09T06:38:58.921Z,9.77
2019-05-09T06:40:02.738Z,9.76
2019-05-09T06:41:08.850Z,10.07
2019-05-09T06:42:11.248Z,10.10
2019-05-09T06:43:15.516Z,10.02
2019-05-09T06:44:20.826Z,10.11
2019-05-09T06:45:24.104Z,10.17
2019-05-09T06:46:28.442Z,10.12
2019-05-09T06:47:32.699Z,10.11
2019-05-09T06:48:37.834Z,10.18
2019-05-09T06:49:41.387Z,10.26
2019-05-09T06:50:45.658Z,10.22
2019-05-09T06:51:50.031Z,10.33
2019-05-09T06:52:54.273Z,10.31
2019-05-09T06:53:58.656Z,10.38
2019-05-09T06:55:02.928Z,10.40
2019-05-09T06:56:07.532Z,10.36
2019-05-09T06:57:11.589Z,10.37
2019-05-09T06:58:18.324Z,10.40
2019-05-09T06:59:20.130Z,10.41
2019-05-09T07:00:24.419Z,10.38
2019-05-09T07:01:28.716Z,10.36
2019-05-09T07:02:32.999Z,10.43
2019-05-09T07:03:37.563Z,10.37
2019-05-09T07:04:41.541Z,10.35
2019-05-09T07:05:48.058Z,10.36
2019-05-09T07:06:50.130Z,10.40
2019-05-09T07:07:54.397Z,10.57
2019-05-09T07:08:58.682Z,10.56
2019-05-09T07:10:09.050Z,10.58
2019-05-09T07:11:11.955Z,10.64
2019-05-09T07:12:18.072Z,10.61
2019-05-09T07:13:20.548Z,10.62
2019-05-09T07:14:28.643Z,10.58
2019-05-09T07:15:29.138Z,10.54
2019-05-09T07:16:33.395Z,10.55
2019-05-09T07:17:38.707Z,10.54
2019-05-09T07:18:42.031Z,10.55
2019-05-09T07:19:48.564Z,10.55
2019-05-09T07:20:50.618Z,10.66
2019-05-09T07:21:54.952Z,10.59
2019-05-09T07:22:59.252Z,10.67
2019-05-09T07:24:03.516Z,10.58
2019-05-09T07:25:10.885Z,10.60
2019-05-09T07:26:12.161Z,10.62
2019-05-09T07:27:17.936Z,10.85
2019-05-09T07:28:20.709Z,10.76
2019-05-09T07:29:24.953Z,10.75
2019-05-09T07:30:29.252Z,10.79
2019-05-09T07:31:33.548Z,10.75
2019-05-09T07:32:38.240Z,10.79
2019-05-09T07:33:42.180Z,10.83
2019-05-09T07:34:47.417Z,10.78
2019-05-09T07:35:50.814Z,10.84
2019-05-09T07:36:55.134Z,10.81
2019-05-09T07:37:59.415Z,10.83
2019-05-09T07:39:03.723Z,10.92
2019-05-09T07:40:08.576Z,10.92
2019-05-09T07:41:12.337Z,10.94
2019-05-09T07:42:18.006Z,10.92
2019-05-09T07:43:20.969Z,10.88
2019-05-09T07:44:25.279Z,10.85
2019-05-09T07:45:29.566Z,10.83
2019-05-09T07:46:33.879Z,10.90
2019-05-09T07:47:38.876Z,10.85
2019-05-09T07:48:42.535Z,10.97
2019-05-09T07:49:48.138Z,10.99
2019-05-09T07:50:51.106Z,11.02
2019-05-09T07:51:55.415Z,10.94
2019-05-09T07:52:59.773Z,10.88
2019-05-09T07:54:18.236Z,10.85
2019-05-09T07:55:09.059Z,10.83
2019-05-09T07:56:12.784Z,10.76
2019-05-09T07:57:18.188Z,10.68
2019-05-09T07:58:21.448Z,10.57
2019-05-09T07:59:27.466Z,10.50
2019-05-09T08:00:29.971Z,10.46
2019-05-09T08:01:34.367Z,10.44
2019-05-09T08:02:38.878Z,10.43
2019-05-09T08:03:42.939Z,10.40
2019-05-09T08:04:48.856Z,10.42
2019-05-09T08:05:51.498Z,10.53
2019-05-09T08:06:57.665Z,10.54
2019-05-09T08:08:00.110Z,10.67
2019-05-09T08:09:04.434Z,10.72
2019-05-09T08:10:11.217Z,10.67
2019-05-09T08:11:13.025Z,10.62
2019-05-09T08:12:18.044Z,10.63
2019-05-09T08:13:21.738Z,10.65
2019-05-09T08:14:28.128Z,10.78
2019-05-09T08:15:30.250Z,10.81
2019-05-09T08:16:34.538Z,10.77
2019-05-09T08:17:38.813Z,10.96
2019-05-09T08:18:43.163Z,10.91
2019-05-09T08:19:48.475Z,10.86
2019-05-09T08:20:51.842Z,10.78
2019-05-09T08:21:57.482Z,10.72
2019-05-09T08:23:02.048Z,10.81
2019-05-09T08:24:04.796Z,10.84
2019-05-09T08:25:09.196Z,10.84
2019-05-09T08:26:13.432Z,10.77
2019-05-09T08:27:17.725Z,10.71
2019-05-09T08:28:21.989Z,10.69
2019-05-09T08:29:28.168Z,10.66
2019-05-09T08:30:35.884Z,10.67
2019-05-09T08:31:34.968Z,10.66
2019-05-09T08:32:39.237Z,10.67
2019-05-09T08:33:43.543Z,10.68
2019-05-09T08:34:48.323Z,10.74
2019-05-09T08:35:52.811Z,10.80
2019-05-09T08:36:57.999Z,10.82
2019-05-09T08:38:00.769Z,10.81
2019-05-09T08:39:05.001Z,10.84
2019-05-09T08:40:09.409Z,10.92
2019-05-09T08:41:13.723Z,10.95
2019-05-09T08:42:20.073Z,10.95
2019-05-09T08:43:22.361Z,10.91
2019-05-09T08:44:30.556Z,10.91
2019-05-09T08:45:31.739Z,10.96
2019-05-09T08:46:37.575Z,11.00
2019-05-09T08:47:39.530Z,11.03
2019-05-09T08:48:43.900Z,10.80
2019-05-09T08:49:49.613Z,10.83
2019-05-09T08:50:52.449Z,10.83
2019-05-09T08:52:12.001Z,11.04
2019-05-09T08:53:01.126Z,11.03
2019-05-09T08:54:05.415Z,10.90
2019-05-09T08:55:09.752Z,10.91
2019-05-09T08:56:14.009Z,10.95
2019-05-09T08:57:18.426Z,11.09
2019-05-09T08:58:22.648Z,10.89
2019-05-09T08:59:27.613Z,10.98
2019-05-09T09:00:31.242Z,10.93
2019-05-09T09:01:54.410Z,10.92
2019-05-09T09:02:39.840Z,10.91
2019-05-09T09:03:44.162Z,10.96
2019-05-09T09:04:49.058Z,10.96
2019-05-09T09:05:52.818Z,10.97
2019-05-09T09:06:57.728Z,11.09
2019-05-09T09:08:01.534Z,11.13
2019-05-09T09:09:07.903Z,11.19
2019-05-09T09:10:10.090Z,11.26
2019-05-09T09:11:14.375Z,11.48
2019-05-09T09:12:27.147Z,11.40
2019-05-09T09:13:23.107Z,11.27
2019-05-09T09:14:28.010Z,11.12
2019-05-09T09:15:55.595Z,11.21
2019-05-09T09:16:37.879Z,11.33
2019-05-09T09:17:40.263Z,11.26
2019-05-09T09:18:44.690Z,11.27
2019-05-09T09:19:48.954Z,11.30
2019-05-09T09:20:53.300Z,11.25
2019-05-09T09:22:00.472Z,11.17
2019-05-09T09:23:01.926Z,11.20
2019-05-09T09:24:08.575Z,11.19
2019-05-09T09:25:10.541Z,11.13
2019-05-09T09:26:14.919Z,11.16
2019-05-09T09:27:19.283Z,11.12
2019-05-09T09:28:23.584Z,11.12
2019-05-09T09:29:28.443Z,11.18
2019-05-09T09:30:32.279Z,11.26
2019-05-09T09:31:37.854Z,11.31
2019-05-09T09:32:40.917Z,11.44
2019-05-09T09:33:45.166Z,11.48
2019-05-09T09:34:49.487Z,11.19
2019-05-09T09:35:53.886Z,11.49
2019-05-09T09:37:03.809Z,11.41
2019-05-09T09:38:02.465Z,11.43
2019-05-09T09:39:08.035Z,11.44
2019-05-09T09:40:11.252Z,11.38
2019-05-09T09:41:17.990Z,11.45
2019-05-09T09:42:20.346Z,11.44
2019-05-09T09:43:24.234Z,11.37
2019-05-09T09:44:28.882Z,11.32
2019-05-09T09:45:32.871Z,11.25
2019-05-09T09:46:37.501Z,11.24
2019-05-09T09:47:41.535Z,11.32
2019-05-09T09:48:48.928Z,11.45
2019-05-09T09:49:55.110Z,11.36
2019-05-09T09:50:57.953Z,11.47
2019-05-09T09:52:01.071Z,11.57
2019-05-09T09:53:08.282Z,11.69
2019-05-09T09:54:09.658Z,11.65
2019-05-09T09:55:14.324Z,11.71
2019-05-09T09:56:22.418Z,11.76
2019-05-09T09:57:22.839Z,11.78
2019-05-09T09:58:27.430Z,11.76
2019-05-09T09:59:31.489Z,11.85
2019-05-09T10:00:38.101Z,11.63
2019-05-09T10:01:40.129Z,11.79
2019-05-09T10:02:44.537Z,11.73
2019-05-09T10:03:48.913Z,11.86
2019-05-09T10:04:53.229Z,11.80
2019-05-09T10:05:57.893Z,11.89
2019-05-09T10:07:01.955Z,11.76
2019-05-09T10:08:08.886Z,11.72
2019-05-09T10:09:10.547Z,11.29
2019-05-09T10:10:14.846Z,11.51
2019-05-09T10:11:19.169Z,11.67
2019-05-09T10:12:23.521Z,11.56
2019-05-09T10:13:28.702Z,11.70
2019-05-09T10:14:32.194Z,11.83
2019-05-09T10:15:38.392Z,11.76
2019-05-09T10:16:40.887Z,11.76
2019-05-09T10:17:47.571Z,11.69
2019-05-09T10:18:49.582Z,11.82
2019-05-09T10:19:53.930Z,11.90
2019-05-09T10:20:58.663Z,11.67
2019-05-09T10:22:02.620Z,11.73
2019-05-09T10:23:14.940Z,11.45
2019-05-09T10:24:11.259Z,11.28
2019-05-09T10:25:18.121Z,11.21
2019-05-09T10:26:19.934Z,11.35
2019-05-09T10:27:24.262Z,11.29
2019-05-09T10:28:30.047Z,11.28
2019-05-09T10:29:32.917Z,11.12
2019-05-09T10:30:38.284Z,11.18
2019-05-09T10:31:41.625Z,11.15
2019-05-09T10:32:47.635Z,11.13
2019-05-09T10:33:50.427Z,11.09
2019-05-09T10:34:54.648Z,11.10
2019-05-09T10:36:04.088Z,11.17
2019-05-09T10:37:03.473Z,11.17
2019-05-09T10:38:08.725Z,11.12
2019-05-09T10:39:12.104Z,10.78
2019-05-09T10:40:16.534Z,10.97
2019-05-09T10:41:20.866Z,10.77
2019-05-09T10:42:25.341Z,10.63
2019-05-09T10:43:38.449Z,10.90
2019-05-09T10:44:34.125Z,10.75
2019-05-09T10:45:40.766Z,10.33
2019-05-09T10:46:52.504Z,10.52
2019-05-09T10:47:48.277Z,10.76
2019-05-09T10:48:51.553Z,10.67
2019-05-09T10:49:58.033Z,10.80
2019-05-09T10:51:04.188Z,10.87
2019-05-09T10:52:04.667Z,11.00
2019-05-09T10:53:08.925Z,10.85
2019-05-09T10:54:13.346Z,10.90
2019-05-09T10:55:18.076Z,10.98
2019-05-09T10:56:22.055Z,10.93
2019-05-09T10:57:30.950Z,10.79
2019-05-09T10:58:30.843Z,10.81
2019-05-09T10:59:37.546Z,10.93
2019-05-09T11:00:39.834Z,10.75
2019-05-09T11:01:43.923Z,10.76
2019-05-09T11:02:48.465Z,10.90
2019-05-09T11:03:52.557Z,10.34
2019-05-09T11:04:57.636Z,10.57
2019-05-09T11:06:01.251Z,10.86
2019-05-09T11:07:08.102Z,10.76
2019-05-09T11:08:09.959Z,10.52
2019-05-09T11:09:14.392Z,10.59
2019-05-09T11:10:25.658Z,10.54
2019-05-09T11:11:23.103Z,10.46
2019-05-09T11:12:27.739Z,10.69
2019-05-09T11:13:31.803Z,10.63
2019-05-09T11:14:37.537Z,10.78
2019-05-09T11:15:40.666Z,10.78
2019-05-09T11:16:47.456Z,10.45
2019-05-09T11:17:49.295Z,10.36
2019-05-09T11:18:53.606Z,10.69
2019-05-09T11:19:58.842Z,10.66
2019-05-09T11:21:02.242Z,10.58
2019-05-09T11:22:08.094Z,10.64
2019-05-09T11:23:10.950Z,10.71
2019-05-09T11:24:15.434Z,10.75
2019-05-09T11:25:19.747Z,10.55
2019-05-09T11:26:24.058Z,10.85
2019-05-09T11:27:29.295Z,10.62
2019-05-09T11:28:35.677Z,10.27
2019-05-09T11:29:39.189Z,10.54
2019-05-09T11:30:43.442Z,10.41
2019-05-09T11:31:47.862Z,10.11
2019-05-09T11:32:52.097Z,10.12
2019-05-09T11:33:57.843Z,10.53
2019-05-09T11:35:00.850Z,10.19
2019-05-09T11:36:05.247Z,10.34
2019-05-09T11:37:09.501Z,10.36
2019-05-09T11:38:13.986Z,10.53
2019-05-09T11:39:35.286Z,10.54
2019-05-09T11:40:22.588Z,10.56
2019-05-09T11:41:29.430Z,10.66
2019-05-09T11:42:33.410Z,10.59
2019-05-09T11:43:35.587Z,10.60
2019-05-09T11:44:39.971Z,10.60
2019-05-09T11:45:44.307Z,10.57
2019-05-09T11:46:48.713Z,10.77
2019-05-09T11:47:52.984Z,10.57
2019-05-09T11:48:58.506Z,10.60
2019-05-09T11:50:01.645Z,10.34
2019-05-09T11:51:06.007Z,10.06
2019-05-09T11:52:10.313Z,10.15
2019-05-09T11:53:14.756Z,10.46
2019-05-09T11:54:19.621Z,10.47
2019-05-09T11:55:32.386Z,10.56
2019-05-09T11:56:27.703Z,10.70
2019-05-09T11:57:31.986Z,10.43
2019-05-09T11:58:37.939Z,10.73
2019-05-09T11:59:40.737Z,10.67
2019-05-09T12:00:45.079Z,10.55
2019-05-09T12:01:49.433Z,10.72
2019-05-09T12:02:54.811Z,10.48
2019-05-09T12:03:58.698Z,10.56
2019-05-09T12:05:03.035Z,10.46
2019-05-09T12:06:08.119Z,10.55
2019-05-09T12:07:11.720Z,10.50
2019-05-09T12:08:17.719Z,10.46
2019-05-09T12:09:20.474Z,10.36
2019-05-09T12:10:24.709Z,10.39
2019-05-09T12:11:29.078Z,9.72
2019-05-09T12:12:33.488Z,9.84
2019-05-09T12:13:38.087Z,9.89
2019-05-09T12:14:42.234Z,9.94
2019-05-09T12:15:48.881Z,10.05
2019-05-09T12:16:50.888Z,10.31
2019-05-09T12:18:01.674Z,10.52
2019-05-09T12:18:59.585Z,10.66
2019-05-09T12:20:12.339Z,10.69
2019-05-09T12:21:08.590Z,10.84
2019-05-09T12:22:12.656Z,10.48
2019-05-09T12:23:19.988Z,10.77
2019-05-09T12:24:21.372Z,10.81
2019-05-09T12:25:28.070Z,10.80
2019-05-09T12:26:30.086Z,10.66
2019-05-09T12:27:34.414Z,10.65
2019-05-09T12:28:38.818Z,10.80
2019-05-09T12:29:43.147Z,10.92
2019-05-09T12:30:48.986Z,10.83
2019-05-09T12:31:51.839Z,10.77
2019-05-09T12:32:58.614Z,10.86
2019-05-09T12:34:00.535Z,10.72
2019-05-09T12:35:04.887Z,11.20
2019-05-09T12:36:09.438Z,11.34
2019-05-09T12:37:13.589Z,11.41
2019-05-09T12:38:18.406Z,11.37
2019-05-09T12:39:22.297Z,11.58
2019-05-09T12:40:26.669Z,11.53
2019-05-09T12:41:31.945Z,10.92
2019-05-09T12:42:35.389Z,11.44
2019-05-09T12:43:39.806Z,11.76
2019-05-09T12:44:44.129Z,11.85
2019-05-09T12:45:48.485Z,11.74
2019-05-09T12:46:52.873Z,10.19
2019-05-09T12:48:10.032Z,10.84
2019-05-09T12:49:01.638Z,10.80
2019-05-09T12:50:08.423Z,10.40
2019-05-09T12:51:10.336Z,10.42
2019-05-09T12:52:14.672Z,10.67
2019-05-09T12:53:19.157Z,10.80
2019-05-09T12:54:23.398Z,10.16
2019-05-09T12:55:30.745Z,10.40
2019-05-09T12:56:34.204Z,10.59
2019-05-09T12:57:38.833Z,10.54
2019-05-09T12:58:42.855Z,10.66
2019-05-09T12:59:52.344Z,10.67
2019-05-09T13:00:52.015Z,10.57
2019-05-09T13:01:58.058Z,10.64
2019-05-09T13:03:00.232Z,10.61
2019-05-09T13:04:04.564Z,10.16
2019-05-09T13:05:08.911Z,10.13
2019-05-09T13:06:13.300Z,10.28
2019-05-09T13:07:17.756Z,10.01
2019-05-09T13:08:22.118Z,10.13
2019-05-09T13:09:28.609Z,10.22
2019-05-09T13:10:30.744Z,10.31
2019-05-09T13:11:35.113Z,9.85
2019-05-09T13:12:39.448Z,10.18
2019-05-09T13:13:43.884Z,9.98
2019-05-09T13:14:48.677Z,10.19
2019-05-09T13:15:52.545Z,10.20
2019-05-09T13:16:57.463Z,10.14
2019-05-09T13:18:01.201Z,10.27
2019-05-09T13:19:05.534Z,10.33
2019-05-09T13:20:09.878Z,10.09
2019-05-09T13:21:14.275Z,9.70
2019-05-09T13:22:18.676Z,9.76
2019-05-09T13:23:22.912Z,9.94
2019-05-09T13:24:28.336Z,10.07
2019-05-09T13:25:31.674Z,10.15
2019-05-09T13:26:38.293Z,10.03
2019-05-09T13:27:40.328Z,10.06
2019-05-09T13:28:44.618Z,10.17
2019-05-09T13:29:49.639Z,10.15
2019-05-09T13:30:53.402Z,9.91
2019-05-09T13:31:57.844Z,10.02
2019-05-09T13:33:02.048Z,10.18
2019-05-09T13:34:08.059Z,10.25
2019-05-09T13:35:10.699Z,10.30
2019-05-09T13:36:15.009Z,10.32
2019-05-09T13:37:19.378Z,10.28
2019-05-09T13:38:23.719Z,10.33
2019-05-09T13:39:28.165Z,10.28
2019-05-09T13:40:32.588Z,10.15
2019-05-09T13:41:37.629Z,10.31
2019-05-09T13:42:41.414Z,10.39
2019-05-09T13:43:56.842Z,10.26
2019-05-09T13:44:50.056Z,10.02
2019-05-09T13:45:54.489Z,10.13
2019-05-09T13:46:58.790Z,10.35
2019-05-09T13:48:03.147Z,10.42
2019-05-09T13:49:12.445Z,10.48
2019-05-09T13:50:11.845Z,10.45
2019-05-09T13:51:18.537Z,10.17
2019-05-09T13:52:20.597Z,10.35
2019-05-09T13:53:24.954Z,10.40
2019-05-09T13:54:29.230Z,10.46
2019-05-09T13:55:33.651Z,10.48
2019-05-09T13:56:38.034Z,9.81
2019-05-09T13:57:42.451Z,9.83
2019-05-09T13:58:48.719Z,9.76
2019-05-09T13:59:51.104Z,9.82
2019-05-09T14:01:02.043Z,9.28
2019-05-09T14:02:00.155Z,9.48
2019-05-09T14:03:04.144Z,9.68